Time;durP1;ratioP1;P1;durP2;ratioP2;P2;SDS_P1;SDS_P2;PMS_P1;PMS_P2;Temp;Humidity;BMP_temperature;BMP_pressure;BME280_temperature;BME280_humidity;BME280_pressure;Samples;Min_cycle;Max_cycle;Signal;HPM_P1;HPM_P2
2022/07/29 00:02:19;;;;;;;2.47;1.70;;;;;;;16.39;63.24;102005.09;6224179;28;20236;-68
2022/07/29 00:05:41;;;;;;;1.90;1.65;;;;;;;16.37;62.73;102012.53;6218808;28;20237;-68
2022/07/29 00:09:02;;;;;;;4.97;1.70;;;;;;;16.22;64.08;102009.41;6221785;28;20520;-69
2022/07/29 00:12:25;;;;;;;3.60;2.72;;;;;;;16.29;63.36;102010.53;6220858;28;20513;-67
2022/07/29 00:15:46;;;;;;;2.08;1.67;;;;;;;16.28;63.29;102008.84;6219569;28;20338;-68
2022/07/29 00:19:08;;;;;;;4.38;2.10;;;;;;;16.12;64.58;102003.13;6220015;28;20236;-68
2022/07/29 00:22:29;;;;;;;2.53;2.33;;;;;;;16.18;64.06;101996.25;6225481;28;20232;-68
2022/07/29 00:25:50;;;;;;;4.53;2.55;;;;;;;16.21;63.27;102001.41;6221217;28;20224;-68
2022/07/29 00:29:11;;;;;;;4.45;2.03;;;;;;;16.05;64.40;101996.53;6221096;28;20233;-68
2022/07/29 00:32:32;;;;;;;4.10;3.10;;;;;;;15.98;64.53;102001.69;6218801;28;20264;-68
2022/07/29 00:35:54;;;;;;;3.25;2.75;;;;;;;15.95;65.04;101984.81;6221476;28;20232;-68
2022/07/29 00:39:15;;;;;;;2.83;2.53;;;;;;;16.00;64.40;101988.81;6219271;28;20776;-68
2022/07/29 00:42:43;;;;;;;3.37;2.60;;;;;;;16.01;64.29;101981.50;6219683;28;20228;-67
2022/07/29 00:46:04;;;;;;;3.77;2.90;;;;;;;15.94;64.37;101983.94;6219824;28;20670;-68
2022/07/29 00:49:25;;;;;;;4.15;2.53;;;;;;;15.86;64.47;101986.53;6221885;28;20622;-68
2022/07/29 00:52:48;;;;;;;3.90;2.73;;;;;;;15.99;64.03;101980.78;6221660;28;20233;-68
2022/07/29 00:56:09;;;;;;;3.23;2.70;;;;;;;15.92;64.45;101977.78;6222550;28;20520;-68
2022/07/29 00:59:30;;;;;;;5.07;3.50;;;;;;;15.89;64.29;101974.50;6222330;28;20315;-68
2022/07/29 01:02:51;;;;;;;3.87;2.23;;;;;;;15.81;64.08;101975.19;6210006;28;20220;-68
2022/07/29 01:06:12;;;;;;;4.07;3.67;;;;;;;15.93;63.20;101968.63;6214531;28;20614;-68
2022/07/29 01:09:37;;;;;;;1.70;1.60;;;;;;;15.90;63.35;101971.63;6216955;28;20622;-68
2022/07/29 01:12:59;;;;;;;4.77;2.83;;;;;;;15.92;63.71;101969.63;6220411;28;20228;-68
2022/07/29 01:16:29;;;;;;;5.10;2.77;;;;;;;15.94;63.20;101961.31;6220875;28;20228;-69
2022/07/29 01:19:57;;;;;;;3.70;2.70;;;;;;;15.90;63.12;101960.75;6221355;28;20235;-68
2022/07/29 01:23:40;;;;;;;2.87;2.57;;;;;;;15.85;63.25;101952.16;6220274;28;20228;-68
2022/07/29 01:27:19;;;;;;;3.83;2.73;;;;;;;15.94;62.98;101950.44;6219710;28;20229;-69
2022/07/29 01:30:45;;;;;;;3.20;2.20;;;;;;;15.97;62.96;101950.16;6210557;28;20243;-69
2022/07/29 01:34:10;;;;;;;2.93;1.73;;;;;;;15.93;62.76;101944.16;6216373;28;20224;-68
2022/07/29 01:37:38;;;;;;;4.20;2.73;;;;;;;15.94;62.73;101940.41;6219227;28;20232;-69
2022/07/29 01:41:03;;;;;;;4.00;2.20;;;;;;;15.92;62.79;101937.00;6219841;28;20616;-68
2022/07/29 01:44:31;;;;;;;5.03;2.63;;;;;;;15.91;63.12;101934.44;6211097;28;20256;-68
2022/07/29 01:47:59;;;;;;;3.87;2.50;;;;;;;15.89;62.59;101939.16;6218716;28;20322;-68
2022/07/29 01:51:26;;;;;;;6.60;2.70;;;;;;;15.73;63.67;101931.56;6221325;28;20240;-69
2022/07/29 01:54:52;;;;;;;3.10;1.70;;;;;;;15.62;63.67;101931.72;6221222;28;20369;-69
2022/07/29 01:58:18;;;;;;;3.37;2.47;;;;;;;15.75;63.12;101923.28;6220678;28;20635;-68
2022/07/29 02:01:41;;;;;;;2.77;2.00;;;;;;;15.72;63.62;101918.13;6221060;28;20625;-67
2022/07/29 02:05:08;;;;;;;3.10;2.40;;;;;;;15.82;63.56;101921.69;6221460;28;20849;-68
2022/07/29 02:08:31;;;;;;;4.73;2.50;;;;;;;15.79;63.20;101920.09;6220808;28;20257;-68
2022/07/29 02:11:55;;;;;;;3.13;1.97;;;;;;;15.75;63.66;101918.69;6213597;28;20551;-67
2022/07/29 02:15:18;;;;;;;3.73;1.97;;;;;;;15.72;63.63;101909.97;6215207;28;20823;-68
2022/07/29 02:18:42;;;;;;;4.63;2.60;;;;;;;15.83;63.65;101912.53;6213114;28;20237;-68
2022/07/29 02:22:06;;;;;;;2.57;2.07;;;;;;;15.78;63.34;101917.53;6213564;28;20638;-68
2022/07/29 02:25:28;;;;;;;5.77;2.33;;;;;;;15.76;63.58;101909.53;6214905;28;20326;-70
2022/07/29 02:28:52;;;;;;;3.27;2.03;;;;;;;15.69;64.21;101908.38;6211357;28;20232;-68
2022/07/29 02:32:16;;;;;;;4.03;2.30;;;;;;;15.68;64.82;101912.13;6216562;28;20224;-68
2022/07/29 02:35:38;;;;;;;4.88;2.55;;;;;;;15.75;64.23;101907.81;6217068;28;20236;-68
2022/07/29 02:39:03;;;;;;;3.22;2.00;;;;;;;15.58;64.81;101904.97;6186575;28;20236;-68
2022/07/29 02:42:27;;;;;;;3.60;2.70;;;;;;;15.65;64.59;101906.09;6218643;28;20260;-68
2022/07/29 02:45:52;;;;;;;5.07;2.28;;;;;;;15.62;64.76;101896.38;6216014;28;20234;-68
2022/07/29 02:49:18;;;;;;;2.70;2.00;;;;;;;15.64;64.65;101901.66;6220310;28;20229;-69
2022/07/29 02:52:43;;;;;;;4.40;2.30;;;;;;;15.58;65.39;101899.53;6220397;28;21971;-69
2022/07/29 02:56:11;;;;;;;4.73;2.90;;;;;;;15.50;65.07;101897.50;6219949;28;20229;-69
2022/07/29 02:59:37;;;;;;;5.97;2.40;;;;;;;15.58;64.96;101896.81;6225963;28;20229;-69
2022/07/29 03:03:02;;;;;;;3.53;2.10;;;;;;;15.60;65.62;101894.81;6218887;28;20229;-68
2022/07/29 03:06:27;;;;;;;3.73;2.47;;;;;;;15.61;65.39;101893.78;6220146;28;20232;-68
2022/07/29 03:09:49;;;;;;;5.88;4.88;;;;;;;15.48;65.66;101891.34;6220325;28;20243;-68
2022/07/29 03:13:13;;;;;;;12.60;11.35;;;;;;;15.37;65.62;101882.47;6215539;28;20225;-68
2022/07/29 03:16:36;;;;;;;6.70;4.28;;;;;;;15.49;66.12;101887.66;6210617;28;20233;-69
2022/07/29 03:19:57;;;;;;;3.35;2.90;;;;;;;15.45;65.70;101888.94;6219061;28;20865;-68
2022/07/29 03:23:20;;;;;;;5.90;2.95;;;;;;;15.53;65.09;101891.78;6216718;28;20229;-68
2022/07/29 03:26:41;;;;;;;3.30;2.13;;;;;;;15.49;65.91;101889.50;6218301;28;20665;-69
2022/07/29 03:30:04;;;;;;;4.57;2.50;;;;;;;15.56;65.56;101882.50;6213830;28;22075;-68
2022/07/29 03:33:25;;;;;;;2.72;2.20;;;;;;;15.57;66.13;101885.06;6211253;28;20233;-69
2022/07/29 03:36:46;;;;;;;6.03;3.67;;;;;;;15.56;66.09;101886.06;6213391;28;20229;-69
2022/07/29 03:40:10;;;;;;;3.40;2.50;;;;;;;15.60;65.16;101887.50;6213507;28;20715;-67
2022/07/29 03:43:35;;;;;;;4.07;2.03;;;;;;;15.50;66.50;101874.94;6209707;28;20225;-70
2022/07/29 03:47:01;;;;;;;2.93;2.20;;;;;;;15.53;65.73;101880.06;6213739;28;20236;-68
2022/07/29 03:50:23;;;;;;;8.87;3.27;;;;;;;15.51;65.54;101880.22;6216246;28;20236;-69
2022/07/29 03:53:44;;;;;;;6.47;3.63;;;;;;;15.52;66.23;101881.06;6224112;28;20613;-68
2022/07/29 03:57:07;;;;;;;5.23;3.03;;;;;;;15.59;66.47;101880.34;6203085;28;20233;-67
2022/07/29 04:00:30;;;;;;;3.97;2.73;;;;;;;15.58;65.65;101880.50;6221842;28;20228;-68
2022/07/29 04:03:53;;;;;;;3.93;2.83;;;;;;;15.72;65.52;101885.50;6216545;28;20831;-67
2022/07/29 04:07:14;;;;;;;4.60;2.70;;;;;;;15.71;65.05;101881.91;6221984;28;20228;-68
2022/07/29 04:10:36;;;;;;;6.90;2.40;;;;;;;15.71;65.15;101887.34;6218568;28;20237;-68
2022/07/29 04:13:57;;;;;;;4.23;2.83;;;;;;;15.71;65.51;101881.03;6219308;28;21003;-68
2022/07/29 04:17:18;;;;;;;4.63;3.73;;;;;;;15.69;65.41;101888.47;6217494;28;20587;-67
2022/07/29 04:20:40;;;;;;;5.67;2.87;;;;;;;15.75;64.74;101877.88;6217953;28;20248;-68
2022/07/29 04:24:01;;;;;;;4.77;3.83;;;;;;;15.80;65.33;101874.75;6196040;28;20224;-68
2022/07/29 04:27:22;;;;;;;3.60;2.23;;;;;;;15.79;64.92;101882.03;6223441;28;20233;-67
2022/07/29 04:30:43;;;;;;;3.27;2.47;;;;;;;15.87;64.75;101878.59;6215750;28;20264;-68
2022/07/29 04:34:03;;;;;;;4.53;2.70;;;;;;;15.89;64.61;101876.59;6219599;28;20224;-67
2022/07/29 04:37:26;;;;;;;3.20;2.60;;;;;;;16.02;64.16;101870.84;6223670;28;20240;-68
2022/07/29 04:40:47;;;;;;;5.03;2.67;;;;;;;16.03;64.98;101873.41;6222718;28;20252;-68
2022/07/29 04:44:08;;;;;;;3.23;2.93;;;;;;;16.06;64.06;101873.13;6219216;28;20352;-68
2022/07/29 04:47:29;;;;;;;5.83;2.80;;;;;;;16.11;64.26;101876.25;6202255;28;20232;-67
2022/07/29 04:50:50;;;;;;;3.63;2.63;;;;;;;16.09;64.03;101878.25;6219974;28;20485;-68
2022/07/29 04:54:12;;;;;;;7.93;2.87;;;;;;;16.13;64.45;101879.69;6220583;28;20245;-68
2022/07/29 04:57:33;;;;;;;5.23;2.50;;;;;;;16.12;64.50;101882.56;6215193;28;20233;-68
2022/07/29 05:00:54;;;;;;;5.60;2.83;;;;;;;16.20;63.75;101883.53;6215052;28;20717;-69
2022/07/29 05:04:15;;;;;;;4.50;3.00;;;;;;;16.22;63.68;101880.66;6216115;28;20254;-67
2022/07/29 05:07:36;;;;;;;2.70;2.50;;;;;;;16.25;64.13;101874.94;6216053;28;20602;-69
2022/07/29 05:10:58;;;;;;;3.13;2.53;;;;;;;16.38;63.82;101878.16;6215740;28;20229;-68
2022/07/29 05:14:19;;;;;;;6.27;3.40;;;;;;;16.49;63.64;101886.16;6217041;28;20252;-69
2022/07/29 05:17:40;;;;;;;7.75;3.30;;;;;;;16.42;63.26;101891.31;6215569;28;20220;-68
2022/07/29 05:21:02;;;;;;;5.43;3.10;;;;;;;16.55;63.42;101886.44;6216823;28;20323;-68
2022/07/29 05:24:23;;;;;;;5.25;2.78;;;;;;;16.61;63.57;101880.41;6221054;28;20304;-69
2022/07/29 05:27:45;;;;;;;4.35;2.85;;;;;;;16.73;63.00;101895.53;6217837;28;20225;-67
2022/07/29 05:31:07;;;;;;;5.07;2.90;;;;;;;16.79;62.54;101891.34;6220009;28;20256;-67
2022/07/29 05:34:28;;;;;;;4.93;3.10;;;;;;;16.86;62.56;101889.72;6219559;28;20244;-68
2022/07/29 05:37:50;;;;;;;4.68;2.88;;;;;;;17.00;62.47;101897.38;6212605;28;20236;-68
2022/07/29 05:41:11;;;;;;;4.13;3.10;;;;;;;17.07;61.98;101901.22;6204194;28;20320;-67
2022/07/29 05:44:37;;;;;;;3.42;2.67;;;;;;;17.01;62.04;101895.50;6214150;28;20237;-67
2022/07/29 05:47:58;;;;;;;3.87;2.80;;;;;;;17.01;61.81;101895.50;6216205;28;20244;-65
2022/07/29 05:51:19;;;;;;;4.55;2.42;;;;;;;17.07;62.07;101897.63;6230285;28;20229;-66
2022/07/29 05:54:40;;;;;;;4.88;3.00;;;;;;;17.21;62.30;101900.69;6222285;28;20228;-65
2022/07/29 05:58:00;;;;;;;2.92;2.63;;;;;;;17.49;61.62;101899.66;6217558;28;20312;-65
2022/07/29 06:01:24;;;;;;;3.67;2.45;;;;;;;17.38;61.53;101897.13;6223488;28;20260;-67
2022/07/29 06:04:45;;;;;;;4.80;2.30;;;;;;;17.60;61.61;101900.44;6221748;28;20233;-67
2022/07/29 06:08:07;;;;;;;4.43;2.63;;;;;;;17.80;60.92;101893.78;6214654;28;20252;-66
2022/07/29 06:11:28;;;;;;;3.97;2.63;;;;;;;17.82;60.97;101894.47;6210328;28;20240;-66
2022/07/29 06:14:49;;;;;;;3.40;3.10;;;;;;;18.08;60.18;101893.50;6210677;28;20220;-66
2022/07/29 06:18:13;;;;;;;4.07;2.58;;;;;;;18.12;60.19;101896.75;6202350;28;20220;-68
2022/07/29 06:21:34;;;;;;;5.10;2.97;;;;;;;18.16;60.16;101893.56;6214163;28;20320;-66
2022/07/29 06:24:55;;;;;;;8.23;3.58;;;;;;;18.34;60.07;101886.16;6203570;28;20263;-66
2022/07/29 06:28:16;;;;;;;6.28;3.78;;;;;;;18.49;59.82;101888.31;6197786;28;20221;-66
2022/07/29 06:31:37;;;;;;;4.85;3.10;;;;;;;18.65;59.50;101883.78;6203854;28;20241;-67
2022/07/29 06:34:59;;;;;;;4.97;3.00;;;;;;;18.83;59.31;101881.81;6205801;28;20689;-69
2022/07/29 06:38:20;;;;;;;5.35;3.28;;;;;;;18.93;58.86;101881.69;6210039;28;21790;-66
2022/07/29 06:41:42;;;;;;;3.67;2.55;;;;;;;19.37;57.69;101885.94;6211505;28;20245;-66
2022/07/29 06:45:06;;;;;;;3.50;3.00;;;;;;;19.53;56.90;101871.41;6210712;28;20236;-66
2022/07/29 06:48:27;;;;;;;4.15;2.47;;;;;;;19.59;56.79;101876.19;6213863;28;20236;-66
2022/07/29 06:51:49;;;;;;;4.82;3.15;;;;;;;19.66;56.33;101885.44;6218981;28;20323;-66
2022/07/29 06:55:11;;;;;;;4.65;2.47;;;;;;;19.76;56.40;101876.03;6211989;28;20347;-68
2022/07/29 06:58:32;;;;;;;3.95;3.10;;;;;;;19.76;56.52;101877.91;6211675;28;20232;-67
2022/07/29 07:01:53;;;;;;;4.53;2.47;;;;;;;19.54;56.70;101870.41;6212261;28;20256;-67
2022/07/29 07:05:14;;;;;;;4.22;2.90;;;;;;;19.54;56.62;101870.41;6209494;28;20511;-68
2022/07/29 07:08:36;;;;;;;4.70;2.53;;;;;;;19.96;55.84;101875.69;6203925;28;20228;-68
2022/07/29 07:11:57;;;;;;;5.28;2.47;;;;;;;19.78;56.15;101871.25;6217400;28;20648;-69
2022/07/29 07:15:21;;;;;;;4.30;2.40;;;;;;;20.02;55.83;101867.66;6214669;28;20292;-69
2022/07/29 07:18:42;;;;;;;2.47;2.28;;;;;;;20.17;55.21;101865.88;6212660;28;20236;-69
2022/07/29 07:22:03;;;;;;;5.15;2.60;;;;;;;20.28;55.54;101865.56;6213366;28;20233;-68
2022/07/29 07:25:25;;;;;;;4.32;2.65;;;;;;;20.08;56.14;101864.22;6217651;28;20228;-67
2022/07/29 07:28:46;;;;;;;3.17;1.80;;;;;;;20.25;55.34;101863.19;6214416;28;20355;-72
2022/07/29 07:32:08;;;;;;;4.90;2.33;;;;;;;20.22;55.81;101859.91;6209683;28;20232;-68
2022/07/29 07:35:29;;;;;;;6.45;2.83;;;;;;;20.04;55.97;101860.13;6218105;28;20228;-67
2022/07/29 07:38:50;;;;;;;3.58;2.03;;;;;;;20.07;55.74;101854.28;6214805;28;20236;-67
2022/07/29 07:42:12;;;;;;;7.05;1.85;;;;;;;20.43;55.44;101854.72;6214541;28;20228;-68
2022/07/29 07:45:33;;;;;;;5.30;2.20;;;;;;;20.53;55.10;101856.25;6192480;28;20232;-69
2022/07/29 07:48:55;;;;;;;2.75;1.98;;;;;;;20.52;54.82;101854.53;6211461;28;20220;-69
2022/07/29 07:52:17;;;;;;;4.55;2.20;;;;;;;20.55;54.76;101851.44;6216828;28;20252;-68
2022/07/29 07:55:40;;;;;;;5.13;3.65;;;;;;;20.63;54.67;101853.31;6218780;28;20884;-68
2022/07/29 07:59:03;;;;;;;3.30;2.28;;;;;;;20.86;54.23;101850.63;6220663;28;20220;-68
2022/07/29 08:02:24;;;;;;;5.35;2.38;;;;;;;20.56;54.39;101857.78;6224475;28;20220;-68
2022/07/29 08:05:46;;;;;;;2.58;1.85;;;;;;;20.52;55.24;101857.28;6209067;28;20477;-69
2022/07/29 08:09:07;;;;;;;2.22;1.90;;;;;;;20.78;54.42;101856.97;6223582;28;20232;-68
2022/07/29 08:12:28;;;;;;;3.97;2.03;;;;;;;21.01;54.24;101854.28;6217055;28;20232;-69
2022/07/29 08:15:57;;;;;;;2.92;2.33;;;;;;;20.82;53.86;101850.09;6222895;28;20599;-69
2022/07/29 08:19:18;;;;;;;5.35;2.90;;;;;;;20.88;54.64;101849.38;6221098;28;20224;-67
2022/07/29 08:22:39;;;;;;;2.30;2.10;;;;;;;21.43;53.48;101838.28;6222469;28;20232;-68
2022/07/29 08:26:00;;;;;;;6.00;2.72;;;;;;;21.74;52.79;101841.78;6219699;28;20228;-70
2022/07/29 08:29:21;;;;;;;2.75;2.47;;;;;;;21.91;52.10;101843.38;6219775;28;20233;-69
2022/07/29 08:32:43;;;;;;;4.03;2.25;;;;;;;21.87;52.00;101835.69;6222996;28;20228;-68
2022/07/29 08:36:05;;;;;;;4.03;2.40;;;;;;;22.01;52.18;101834.88;6221805;28;20316;-65
2022/07/29 08:39:26;;;;;;;4.85;2.15;;;;;;;21.85;52.20;101838.63;6224997;28;20232;-64
2022/07/29 08:42:47;;;;;;;4.00;2.22;;;;;;;22.05;51.26;101844.47;6216534;28;20229;-64
2022/07/29 08:46:08;;;;;;;4.25;2.15;;;;;;;22.26;51.35;101844.56;6221753;28;20236;-64
2022/07/29 08:49:31;;;;;;;5.20;2.63;;;;;;;22.53;51.30;101841.16;6216184;28;20244;-66
2022/07/29 08:52:52;;;;;;;3.40;1.80;;;;;;;22.53;50.23;101841.16;6208655;28;20319;-65
2022/07/29 08:56:14;;;;;;;4.68;2.42;;;;;;;22.65;49.88;101833.31;6213790;28;20484;-65
2022/07/29 08:59:36;;;;;;;5.97;2.67;;;;;;;22.86;49.12;101825.97;6211067;28;20233;-65
2022/07/29 09:02:59;;;;;;;4.15;2.17;;;;;;;22.86;49.15;101830.63;6208767;28;20233;-68
2022/07/29 09:06:23;;;;;;;3.97;2.50;;;;;;;23.25;48.73;101822.81;6208246;28;20225;-65
2022/07/29 09:09:45;;;;;;;2.38;1.88;;;;;;;23.33;47.73;101828.22;6208627;28;20244;-65
2022/07/29 09:13:06;;;;;;;7.32;2.33;;;;;;;23.68;46.82;101829.19;6224679;28;20236;-64
2022/07/29 09:16:44;;;;;;;3.38;2.38;;;;;;;23.92;47.67;101826.03;6233696;28;20232;-64
2022/07/29 09:20:10;;;;;;;6.55;1.95;;;;;;;23.81;46.44;101830.16;6218948;28;20236;-65
2022/07/29 09:23:32;;;;;;;6.25;2.20;;;;;;;23.77;46.45;101823.34;6215442;28;20243;-65
2022/07/29 09:26:54;;;;;;;5.85;1.88;;;;;;;24.03;46.66;101824.63;6207691;28;20233;-64
2022/07/29 09:30:15;;;;;;;5.05;2.42;;;;;;;23.39;46.19;101829.34;6205785;28;20693;-63
2022/07/29 09:33:38;;;;;;;3.53;1.73;;;;;;;23.42;46.98;101815.19;6210867;28;20232;-65
2022/07/29 09:36:59;;;;;;;3.97;2.13;;;;;;;23.50;47.21;101806.78;6206251;28;20232;-65
2022/07/29 09:40:23;;;;;;;2.85;1.88;;;;;;;23.64;47.00;101820.47;6208589;28;20229;-64
2022/07/29 09:43:55;;;;;;;2.95;1.60;;;;;;;23.46;46.53;101822.84;6205298;28;20345;-64
2022/07/29 09:47:17;;;;;;;3.70;1.63;;;;;;;23.62;45.54;101822.56;6214814;28;20232;-65
2022/07/29 09:50:40;;;;;;;2.58;1.88;;;;;;;23.57;45.81;101819.56;6212199;28;20232;-65
2022/07/29 09:54:03;;;;;;;3.50;1.75;;;;;;;23.54;45.12;101825.47;6221383;28;20244;-64
2022/07/29 09:57:29;;;;;;;2.42;1.42;;;;;;;23.36;45.52;101827.00;6213469;28;20249;-63
2022/07/29 10:00:52;;;;;;;3.63;1.80;;;;;;;23.26;46.11;101823.69;6217066;28;20897;-63
2022/07/29 10:04:13;;;;;;;1.80;1.65;;;;;;;23.55;46.12;101827.16;6219370;28;20232;-64
2022/07/29 10:07:45;;;;;;;4.82;2.20;;;;;;;23.68;45.18;101821.78;6227088;28;20233;-65
2022/07/29 10:11:11;;;;;;;2.40;2.03;;;;;;;23.61;45.79;101826.38;6226256;28;20221;-65
2022/07/29 10:14:34;;;;;;;4.78;1.80;;;;;;;23.74;45.33;101817.38;6224218;28;20228;-66
2022/07/29 10:17:57;;;;;;;3.97;1.42;;;;;;;23.63;45.31;101810.53;6220561;28;20248;-65
2022/07/29 10:21:18;;;;;;;3.85;1.73;;;;;;;23.74;45.50;101815.47;6194844;28;20248;-66
2022/07/29 10:24:39;;;;;;;4.22;1.83;;;;;;;23.78;45.12;101805.75;6216125;28;20228;-65
2022/07/29 10:28:00;;;;;;;4.78;2.15;;;;;;;23.83;45.43;101808.78;6217578;28;20232;-64
2022/07/29 10:31:30;;;;;;;4.40;1.88;;;;;;;23.89;44.27;101804.38;6195553;28;20323;-64
2022/07/29 10:35:08;;;;;;;4.60;1.73;;;;;;;24.11;44.15;101797.78;6227692;28;20303;-64
2022/07/29 10:38:43;;;;;;;4.75;1.70;;;;;;;24.30;43.45;101797.03;6219964;28;20255;-64
2022/07/29 10:42:16;;;;;;;3.50;2.60;;;;;;;24.27;44.02;101799.34;6227959;28;20247;-63
2022/07/29 10:45:38;;;;;;;6.32;1.80;;;;;;;24.21;43.30;101791.91;6232096;28;20531;-64
2022/07/29 10:49:08;;;;;;;2.30;2.05;;;;;;;24.73;43.02;101785.78;6222655;28;20232;-64
2022/07/29 10:52:56;;;;;;;3.92;1.60;;;;;;;24.98;42.59;101789.72;6219900;28;20239;-62
2022/07/29 10:56:28;;;;;;;2.60;2.20;;;;;;;25.26;42.54;101790.44;6187408;28;20252;-65
2022/07/29 10:59:50;;;;;;;4.10;1.85;;;;;;;25.27;41.87;101781.94;6219981;28;20228;-67
2022/07/29 11:03:45;;;;;;;1.90;1.80;;;;;;;26.29;40.72;101784.25;6209380;28;20327;-65
2022/07/29 11:07:11;;;;;;;3.22;2.13;;;;;;;26.86;40.00;101781.53;6217847;28;20554;-65
2022/07/29 11:10:32;;;;;;;2.72;1.63;;;;;;;26.82;39.04;101783.03;6218675;28;20228;-66
2022/07/29 11:13:54;;;;;;;2.15;1.45;;;;;;;26.56;38.85;101777.56;6221058;28;20257;-66
2022/07/29 11:17:15;;;;;;;2.22;1.70;;;;;;;26.75;38.96;101777.53;6212400;28;20228;-66
2022/07/29 11:20:40;;;;;;;3.72;2.33;;;;;;;27.11;37.25;101774.16;6188774;28;23578;-64
2022/07/29 11:24:14;;;;;;;2.28;1.70;;;;;;;27.42;37.17;101774.16;6203968;28;20224;-64
2022/07/29 11:27:39;;;;;;;2.63;1.30;;;;;;;27.07;37.08;101761.81;6209158;28;20322;-64
2022/07/29 11:31:01;;;;;;;1.50;1.30;;;;;;;26.46;38.82;101766.13;6220109;28;20614;-64
2022/07/29 11:34:27;;;;;;;3.15;1.75;;;;;;;26.59;37.98;101768.84;6225620;28;20232;-64
2022/07/29 11:38:08;;;;;;;3.63;1.58;;;;;;;26.27;38.80;101761.50;6226381;28;20232;-64
2022/07/29 11:41:35;;;;;;;3.20;1.83;;;;;;;26.20;38.27;101763.47;6217587;28;20232;-65
2022/07/29 11:44:57;;;;;;;1.75;1.45;;;;;;;26.38;39.42;101758.94;6221394;28;20228;-65
2022/07/29 11:48:19;;;;;;;4.97;1.70;;;;;;;26.43;38.48;101752.75;6214729;28;20241;-65
2022/07/29 11:51:42;;;;;;;3.25;1.52;;;;;;;26.65;38.08;101746.69;6220884;28;20229;-65
2022/07/29 11:55:05;;;;;;;2.53;1.45;;;;;;;26.25;38.69;101747.91;6223473;28;20224;-64
2022/07/29 11:58:29;;;;;;;1.77;1.58;;;;;;;26.68;38.15;101742.66;6224092;28;20236;-76
2022/07/29 12:01:54;;;;;;;3.95;1.67;;;;;;;27.03;37.95;101740.34;6211803;28;20232;-81
2022/07/29 12:05:15;;;;;;;3.33;1.40;;;;;;;27.85;36.85;101729.84;6225632;28;20603;-74
2022/07/29 12:08:42;;;;;;;1.83;1.50;;;;;;;28.11;35.11;101739.84;6223889;28;20229;-76
2022/07/29 12:12:03;;;;;;;4.32;1.83;;;;;;;27.77;36.16;101730.16;6212355;28;20236;-75
2022/07/29 12:15:26;;;;;;;1.75;1.30;;;;;;;27.84;36.26;101730.09;6214212;28;20269;-78
2022/07/29 12:18:56;;;;;;;6.20;1.50;;;;;;;28.38;35.88;101724.59;6209764;28;20241;-75
2022/07/29 12:22:25;;;;;;;2.72;1.50;;;;;;;28.82;35.34;101726.16;6219869;28;20243;-72
2022/07/29 12:25:47;;;;;;;1.50;1.40;;;;;;;28.50;35.74;101733.00;6226062;28;20224;-73
2022/07/29 12:29:15;;;;;;;5.15;1.55;;;;;;;28.29;35.62;101726.84;6224094;28;20229;-75
2022/07/29 12:32:39;;;;;;;2.38;1.92;;;;;;;27.79;36.07;101727.16;6216525;28;20518;-77
2022/07/29 12:36:03;;;;;;;3.92;1.42;;;;;;;28.29;35.45;101721.28;6210868;28;20236;-76
2022/07/29 12:39:27;;;;;;;3.30;1.30;;;;;;;29.30;34.20;101715.84;6225994;28;20348;-77
2022/07/29 12:43:10;;;;;;;1.75;1.42;;;;;;;29.63;33.78;101709.69;6213598;28;20233;-74
2022/07/29 12:46:31;;;;;;;3.35;1.85;;;;;;;29.16;34.40;101722.72;6221139;28;20236;-75
2022/07/29 12:54:59;;;;;;;3.78;1.85;;;;;;;30.49;32.15;101712.56;6729043;22;20228;-78
2022/07/29 12:58:31;;;;;;;2.67;1.85;;;;;;;33.33;28.10;101712.75;6251964;28;20228;-65
2022/07/29 13:01:52;;;;;;;2.38;1.73;;;;;;;35.58;25.41;101705.66;6246983;28;20599;-66
2022/07/29 13:05:14;;;;;;;6.03;1.90;;;;;;;36.43;24.89;101703.78;6246388;28;20236;-67
2022/07/29 13:08:35;;;;;;;2.17;1.55;;;;;;;36.61;23.45;101697.53;6250406;28;20227;-67
2022/07/29 13:12:06;;;;;;;4.18;1.80;;;;;;;37.98;22.98;101698.13;6243982;28;20243;-67
2022/07/29 13:15:27;;;;;;;3.28;1.77;;;;;;;38.31;20.77;101686.78;6245611;28;20228;-67
2022/07/29 13:18:50;;;;;;;2.45;2.08;;;;;;;37.41;22.13;101688.53;6253476;28;20220;-67
2022/07/29 13:22:13;;;;;;;2.90;2.20;;;;;;;39.59;20.75;101681.75;6245388;28;20227;-66
2022/07/29 13:25:34;;;;;;;4.10;2.10;;;;;;;40.62;19.13;101675.41;6251643;28;20372;-68
2022/07/29 13:28:56;;;;;;;2.70;1.58;;;;;;;40.38;19.18;101677.63;6248095;28;22292;-67
2022/07/29 13:32:18;;;;;;;2.30;1.33;;;;;;;40.24;19.63;101663.53;6251816;28;20256;-68
2022/07/29 13:35:39;;;;;;;3.47;1.70;;;;;;;40.45;19.08;101672.41;6251832;28;20631;-68
2022/07/29 13:39:02;;;;;;;2.60;1.60;;;;;;;39.62;21.94;101665.00;6245735;28;20224;-68
2022/07/29 13:42:23;;;;;;;2.88;1.88;;;;;;;38.23;24.50;101672.47;6245091;28;20239;-68
2022/07/29 13:45:45;;;;;;;2.85;1.73;;;;;;;34.78;29.14;101663.47;6243343;28;20243;-67
2022/07/29 13:49:06;;;;;;;4.07;2.30;;;;;;;34.29;30.05;101665.81;6249746;28;20228;-68
2022/07/29 13:52:28;;;;;;;2.45;1.90;;;;;;;32.52;31.78;101677.50;6244993;28;20330;-68
2022/07/29 13:55:51;;;;;;;3.65;2.67;;;;;;;30.93;35.27;101680.31;6244356;28;20227;-68
2022/07/29 13:59:12;;;;;;;2.83;2.05;;;;;;;29.84;36.71;101676.63;6242124;28;20228;-67
2022/07/29 14:02:34;;;;;;;3.47;2.22;;;;;;;28.98;39.30;101683.84;6244294;28;20231;-68
2022/07/29 14:05:56;;;;;;;4.88;2.40;;;;;;;28.15;39.79;101692.03;6247937;28;20802;-68
2022/07/29 14:09:17;;;;;;;4.20;1.75;;;;;;;28.02;40.26;101688.53;6251432;28;20449;-68
2022/07/29 14:12:38;;;;;;;4.63;2.63;;;;;;;28.41;40.00;101690.84;6244852;28;20232;-68
2022/07/29 14:15:59;;;;;;;3.90;2.45;;;;;;;28.39;39.57;101679.97;6242397;28;21156;-68
2022/07/29 14:19:22;;;;;;;6.28;2.00;;;;;;;27.62;41.03;101682.53;6247642;28;20243;-68
2022/07/29 14:22:43;;;;;;;6.55;3.75;;;;;;;27.21;42.32;101687.78;6247374;28;20227;-68
2022/07/29 14:26:03;;;;;;;3.58;2.25;;;;;;;26.58;43.04;101673.94;6240853;28;20228;-67
2022/07/29 14:29:24;;;;;;;5.80;2.40;;;;;;;26.40;44.12;101676.59;6255213;28;20686;-69
2022/07/29 14:32:45;;;;;;;3.67;2.33;;;;;;;26.21;44.66;101676.66;6252062;28;20235;-68
2022/07/29 14:36:08;;;;;;;3.33;2.85;;;;;;;26.26;43.94;101676.88;6251326;28;20315;-68
2022/07/29 14:39:30;;;;;;;6.10;2.47;;;;;;;26.42;43.82;101670.81;6250066;28;20232;-68
2022/07/29 14:42:50;;;;;;;8.55;3.58;;;;;;;26.86;43.02;101671.66;6238843;28;20224;-69
2022/07/29 14:46:12;;;;;;;3.83;2.80;;;;;;;27.35;41.97;101667.28;6225852;28;20231;-68
2022/07/29 14:49:33;;;;;;;3.67;2.33;;;;;;;27.95;40.73;101665.56;6253153;28;22388;-69
2022/07/29 14:52:55;;;;;;;4.95;2.70;;;;;;;28.74;40.37;101657.97;6250944;28;20232;-69
2022/07/29 14:56:16;;;;;;;7.70;3.70;;;;;;;29.28;39.25;101651.31;6225759;28;20700;-68
2022/07/29 14:59:37;;;;;;;4.85;2.33;;;;;;;29.37;38.54;101652.69;6246861;28;20517;-68
2022/07/29 15:03:02;;;;;;;5.50;2.25;;;;;;;29.76;38.28;101648.31;6509356;22;20219;-68
2022/07/29 15:06:23;;;;;;;3.85;2.35;;;;;;;29.63;38.54;101654.97;6127510;28;20229;-69
2022/07/29 15:09:45;;;;;;;2.45;1.77;;;;;;;29.61;38.75;101659.06;6176476;28;20238;-67
2022/07/29 15:13:07;;;;;;;5.28;2.00;;;;;;;29.42;38.02;101647.22;6167270;28;20256;-66
2022/07/29 15:16:28;;;;;;;3.50;2.22;;;;;;;29.43;38.13;101653.63;6128636;28;20229;-68
2022/07/29 15:19:49;;;;;;;2.38;2.17;;;;;;;29.31;38.36;101653.59;6170683;28;20317;-68
2022/07/29 15:23:12;;;;;;;6.00;1.90;;;;;;;29.90;38.26;101653.38;6176454;28;20243;-68
2022/07/29 15:26:34;;;;;;;6.05;2.63;;;;;;;29.85;38.11;101650.47;6167062;28;20253;-67
2022/07/29 15:29:55;;;;;;;6.07;2.40;;;;;;;29.59;38.15;101644.56;6172021;28;20846;-68
2022/07/29 15:33:16;;;;;;;3.22;2.33;;;;;;;28.80;39.18;101651.44;6163487;28;20225;-67
2022/07/29 15:36:37;;;;;;;4.55;2.33;;;;;;;28.73;39.07;101645.13;6164540;28;20230;-67
2022/07/29 15:39:58;;;;;;;3.58;2.30;;;;;;;28.91;39.63;101644.25;6174795;28;20681;-68
2022/07/29 15:43:21;;;;;;;4.88;1.95;;;;;;;29.03;38.97;101637.63;6173906;28;20827;-67
2022/07/29 15:50:20;;;;;;;4.63;2.38;;;;;;;28.78;39.64;101639.75;6164353;28;20703;-67
2022/07/29 15:53:41;;;;;;;6.82;2.83;;;;;;;29.14;38.97;101650.66;6161724;28;20506;-67